sensor_id;sensor_type;location;lat;lon;timestamp;temperature;humidity
42227;DHT22;27892;52.378;13.122;2023-05-31T00:00:04;17.20;45.40
42227;DHT22;27892;52.378;13.122;2023-05-31T00:02:30;17.10;45.60
42227;DHT22;27892;52.378;13.122;2023-05-31T00:04:56;17.10;45.70
42227;DHT22;27892;52.378;13.122;2023-05-31T00:07:21;17.00;45.80
42227;DHT22;27892;52.378;13.122;2023-05-31T00:09:47;17.00;45.90
42227;DHT22;27892;52.378;13.122;2023-05-31T00:12:13;17.00;46.10
42227;DHT22;27892;52.378;13.122;2023-05-31T00:14:38;16.90;46.20
42227;DHT22;27892;52.378;13.122;2023-05-31T00:17:04;16.90;46.30
42227;DHT22;27892;52.378;13.122;2023-05-31T00:19:30;16.90;46.10
42227;DHT22;27892;52.378;13.122;2023-05-31T00:21:55;16.90;46.30
42227;DHT22;27892;52.378;13.122;2023-05-31T00:24:21;16.80;46.30
42227;DHT22;27892;52.378;13.122;2023-05-31T00:26:48;16.70;46.50
42227;DHT22;27892;52.378;13.122;2023-05-31T00:29:14;16.70;46.70
42227;DHT22;27892;52.378;13.122;2023-05-31T00:31:41;16.60;46.80
42227;DHT22;27892;52.378;13.122;2023-05-31T00:34:07;16.60;46.90
42227;DHT22;27892;52.378;13.122;2023-05-31T00:36:33;16.60;47.00
42227;DHT22;27892;52.378;13.122;2023-05-31T00:38:58;16.60;47.00
42227;DHT22;27892;52.378;13.122;2023-05-31T00:41:24;16.60;47.10
42227;DHT22;27892;52.378;13.122;2023-05-31T00:43:51;16.60;47.10
42227;DHT22;27892;52.378;13.122;2023-05-31T00:48:48;16.50;47.40
42227;DHT22;27892;52.378;13.122;2023-05-31T00:51:14;16.40;47.60
42227;DHT22;27892;52.378;13.122;2023-05-31T00:53:40;16.40;47.70
42227;DHT22;27892;52.378;13.122;2023-05-31T00:56:06;16.40;47.60
42227;DHT22;27892;52.378;13.122;2023-05-31T00:58:32;16.40;47.80
42227;DHT22;27892;52.378;13.122;2023-05-31T01:01:00;16.40;48.10
42227;DHT22;27892;52.378;13.122;2023-05-31T01:03:26;16.30;48.10
42227;DHT22;27892;52.378;13.122;2023-05-31T01:05:52;16.30;48.20
42227;DHT22;27892;52.378;13.122;2023-05-31T01:08:18;16.20;48.20
42227;DHT22;27892;52.378;13.122;2023-05-31T01:10:45;16.20;48.50
42227;DHT22;27892;52.378;13.122;2023-05-31T01:13:25;16.10;48.50
42227;DHT22;27892;52.378;13.122;2023-05-31T01:16:18;16.10;48.70
42227;DHT22;27892;52.378;13.122;2023-05-31T01:18:50;16.10;48.90
42227;DHT22;27892;52.378;13.122;2023-05-31T01:21:25;16.00;48.90
42227;DHT22;27892;52.378;13.122;2023-05-31T01:26:37;15.90;49.20
42227;DHT22;27892;52.378;13.122;2023-05-31T01:29:06;15.90;49.40
42227;DHT22;27892;52.378;13.122;2023-05-31T01:31:35;15.80;49.40
42227;DHT22;27892;52.378;13.122;2023-05-31T01:34:03;15.80;49.40
42227;DHT22;27892;52.378;13.122;2023-05-31T01:36:29;15.80;49.40
42227;DHT22;27892;52.378;13.122;2023-05-31T01:38:55;15.70;49.60
42227;DHT22;27892;52.378;13.122;2023-05-31T01:41:20;15.70;49.70
42227;DHT22;27892;52.378;13.122;2023-05-31T01:43:47;15.60;49.80
42227;DHT22;27892;52.378;13.122;2023-05-31T01:46:14;15.60;49.90
42227;DHT22;27892;52.378;13.122;2023-05-31T01:48:41;15.60;50.00
42227;DHT22;27892;52.378;13.122;2023-05-31T01:51:09;15.50;49.90
42227;DHT22;27892;52.378;13.122;2023-05-31T01:53:36;15.50;50.00
42227;DHT22;27892;52.378;13.122;2023-05-31T01:56:03;15.40;50.20
42227;DHT22;27892;52.378;13.122;2023-05-31T01:58:37;15.40;50.40
42227;DHT22;27892;52.378;13.122;2023-05-31T02:01:03;15.30;50.70
42227;DHT22;27892;52.378;13.122;2023-05-31T02:03:29;15.30;50.80
42227;DHT22;27892;52.378;13.122;2023-05-31T02:05:59;15.30;50.90
42227;DHT22;27892;52.378;13.122;2023-05-31T02:08:25;15.30;50.90
42227;DHT22;27892;52.378;13.122;2023-05-31T02:10:51;15.30;50.90
42227;DHT22;27892;52.378;13.122;2023-05-31T02:13:26;15.20;50.90
42227;DHT22;27892;52.378;13.122;2023-05-31T02:15:53;15.20;51.10
42227;DHT22;27892;52.378;13.122;2023-05-31T02:18:19;15.10;51.10
42227;DHT22;27892;52.378;13.122;2023-05-31T02:20:45;15.10;51.20
42227;DHT22;27892;52.378;13.122;2023-05-31T02:23:11;15.10;51.80
42227;DHT22;27892;52.378;13.122;2023-05-31T02:25:36;15.00;51.30
42227;DHT22;27892;52.378;13.122;2023-05-31T02:28:02;15.00;51.40
42227;DHT22;27892;52.378;13.122;2023-05-31T02:30:29;14.90;51.40
42227;DHT22;27892;52.378;13.122;2023-05-31T02:32:55;14.90;51.70
42227;DHT22;27892;52.378;13.122;2023-05-31T02:35:21;14.90;51.70
42227;DHT22;27892;52.378;13.122;2023-05-31T02:37:46;14.90;51.80
42227;DHT22;27892;52.378;13.122;2023-05-31T02:40:12;14.90;51.80
42227;DHT22;27892;52.378;13.122;2023-05-31T02:42:40;14.80;51.70
42227;DHT22;27892;52.378;13.122;2023-05-31T02:45:10;14.80;51.80
42227;DHT22;27892;52.378;13.122;2023-05-31T02:47:37;14.80;51.90
42227;DHT22;27892;52.378;13.122;2023-05-31T02:50:07;14.70;51.90
42227;DHT22;27892;52.378;13.122;2023-05-31T02:52:34;14.70;52.00
42227;DHT22;27892;52.378;13.122;2023-05-31T02:55:00;14.70;52.20
42227;DHT22;27892;52.378;13.122;2023-05-31T02:57:25;14.60;52.10
42227;DHT22;27892;52.378;13.122;2023-05-31T02:59:56;14.70;52.30
42227;DHT22;27892;52.378;13.122;2023-05-31T03:02:22;14.70;52.40
42227;DHT22;27892;52.378;13.122;2023-05-31T03:04:48;14.60;52.30
42227;DHT22;27892;52.378;13.122;2023-05-31T03:07:14;14.60;52.40
42227;DHT22;27892;52.378;13.122;2023-05-31T03:09:40;14.60;52.50
42227;DHT22;27892;52.378;13.122;2023-05-31T03:12:06;14.60;52.50
42227;DHT22;27892;52.378;13.122;2023-05-31T03:14:32;14.50;52.50
42227;DHT22;27892;52.378;13.122;2023-05-31T03:16:57;14.50;52.60
42227;DHT22;27892;52.378;13.122;2023-05-31T03:19:23;14.50;52.60
42227;DHT22;27892;52.378;13.122;2023-05-31T03:21:49;14.50;52.70
42227;DHT22;27892;52.378;13.122;2023-05-31T03:24:15;14.50;52.60
42227;DHT22;27892;52.378;13.122;2023-05-31T03:26:40;14.60;52.60
42227;DHT22;27892;52.378;13.122;2023-05-31T03:29:06;14.60;52.50
42227;DHT22;27892;52.378;13.122;2023-05-31T03:31:32;14.50;52.40
42227;DHT22;27892;52.378;13.122;2023-05-31T03:33:58;14.60;52.70
42227;DHT22;27892;52.378;13.122;2023-05-31T03:36:24;14.60;52.80
42227;DHT22;27892;52.378;13.122;2023-05-31T03:38:50;14.60;52.90
42227;DHT22;27892;52.378;13.122;2023-05-31T03:41:16;14.60;52.90
42227;DHT22;27892;52.378;13.122;2023-05-31T03:43:42;14.60;53.00
42227;DHT22;27892;52.378;13.122;2023-05-31T03:46:07;14.60;53.10
42227;DHT22;27892;52.378;13.122;2023-05-31T03:48:33;14.70;53.20
42227;DHT22;27892;52.378;13.122;2023-05-31T03:50:59;14.70;53.40
42227;DHT22;27892;52.378;13.122;2023-05-31T03:53:24;14.70;53.40
42227;DHT22;27892;52.378;13.122;2023-05-31T03:55:51;14.70;53.40
42227;DHT22;27892;52.378;13.122;2023-05-31T03:58:17;14.80;53.70
42227;DHT22;27892;52.378;13.122;2023-05-31T04:00:43;14.80;53.90
42227;DHT22;27892;52.378;13.122;2023-05-31T04:03:08;14.90;54.00
42227;DHT22;27892;52.378;13.122;2023-05-31T04:05:40;14.90;53.70
42227;DHT22;27892;52.378;13.122;2023-05-31T04:08:06;15.00;53.80
42227;DHT22;27892;52.378;13.122;2023-05-31T04:10:32;15.00;54.00
42227;DHT22;27892;52.378;13.122;2023-05-31T04:12:58;15.10;54.00
42227;DHT22;27892;52.378;13.122;2023-05-31T04:15:24;15.20;54.00
42227;DHT22;27892;52.378;13.122;2023-05-31T04:17:49;15.30;54.00
42227;DHT22;27892;52.378;13.122;2023-05-31T04:20:15;15.30;54.10
42227;DHT22;27892;52.378;13.122;2023-05-31T04:22:42;15.40;54.20
42227;DHT22;27892;52.378;13.122;2023-05-31T04:25:07;15.50;54.50
42227;DHT22;27892;52.378;13.122;2023-05-31T04:27:34;15.60;54.40
42227;DHT22;27892;52.378;13.122;2023-05-31T04:30:04;15.70;54.30
42227;DHT22;27892;52.378;13.122;2023-05-31T04:32:31;15.80;54.30
42227;DHT22;27892;52.378;13.122;2023-05-31T04:34:59;15.80;54.50
42227;DHT22;27892;52.378;13.122;2023-05-31T04:37:31;16.00;54.50
42227;DHT22;27892;52.378;13.122;2023-05-31T04:39:58;16.10;54.30
42227;DHT22;27892;52.378;13.122;2023-05-31T04:42:26;16.20;54.00
42227;DHT22;27892;52.378;13.122;2023-05-31T04:44:55;16.30;54.10
42227;DHT22;27892;52.378;13.122;2023-05-31T04:47:33;16.40;54.10
42227;DHT22;27892;52.378;13.122;2023-05-31T04:49:59;16.50;54.00
42227;DHT22;27892;52.378;13.122;2023-05-31T04:52:26;16.60;53.90
42227;DHT22;27892;52.378;13.122;2023-05-31T04:55:01;16.70;53.80
42227;DHT22;27892;52.378;13.122;2023-05-31T04:57:28;16.90;53.70
42227;DHT22;27892;52.378;13.122;2023-05-31T04:59:54;17.10;53.40
42227;DHT22;27892;52.378;13.122;2023-05-31T05:02:22;17.20;52.90
42227;DHT22;27892;52.378;13.122;2023-05-31T05:04:48;17.40;52.60
42227;DHT22;27892;52.378;13.122;2023-05-31T05:07:14;17.50;52.20
42227;DHT22;27892;52.378;13.122;2023-05-31T05:09:39;17.60;51.40
42227;DHT22;27892;52.378;13.122;2023-05-31T05:12:06;17.70;51.30
42227;DHT22;27892;52.378;13.122;2023-05-31T05:14:33;17.90;51.20
42227;DHT22;27892;52.378;13.122;2023-05-31T05:16:59;18.00;51.40
42227;DHT22;27892;52.378;13.122;2023-05-31T05:19:24;18.20;50.30
42227;DHT22;27892;52.378;13.122;2023-05-31T05:21:50;18.40;50.00
42227;DHT22;27892;52.378;13.122;2023-05-31T05:24:16;18.50;50.40
42227;DHT22;27892;52.378;13.122;2023-05-31T05:26:42;18.60;49.50
42227;DHT22;27892;52.378;13.122;2023-05-31T05:29:07;18.70;48.90
42227;DHT22;27892;52.378;13.122;2023-05-31T05:31:33;18.80;48.50
42227;DHT22;27892;52.378;13.122;2023-05-31T05:33:59;18.80;48.00
42227;DHT22;27892;52.378;13.122;2023-05-31T05:36:25;19.00;48.00
42227;DHT22;27892;52.378;13.122;2023-05-31T05:38:50;19.20;47.80
42227;DHT22;27892;52.378;13.122;2023-05-31T05:41:16;19.30;47.40
42227;DHT22;27892;52.378;13.122;2023-05-31T05:43:42;19.50;46.90
42227;DHT22;27892;52.378;13.122;2023-05-31T05:46:08;19.60;46.40
42227;DHT22;27892;52.378;13.122;2023-05-31T05:48:34;19.80;46.40
42227;DHT22;27892;52.378;13.122;2023-05-31T05:51:00;20.10;46.10
42227;DHT22;27892;52.378;13.122;2023-05-31T05:53:26;20.30;45.20
42227;DHT22;27892;52.378;13.122;2023-05-31T05:55:52;20.70;44.70
42227;DHT22;27892;52.378;13.122;2023-05-31T05:58:19;21.20;44.20
42227;DHT22;27892;52.378;13.122;2023-05-31T06:00:45;21.80;43.70
42227;DHT22;27892;52.378;13.122;2023-05-31T06:03:12;22.80;42.50
42227;DHT22;27892;52.378;13.122;2023-05-31T06:05:38;24.90;39.80
42227;DHT22;27892;52.378;13.122;2023-05-31T06:08:04;27.10;36.40
42227;DHT22;27892;52.378;13.122;2023-05-31T06:10:30;29.10;33.40
42227;DHT22;27892;52.378;13.122;2023-05-31T06:12:55;30.60;31.40
42227;DHT22;27892;52.378;13.122;2023-05-31T06:15:21;31.40;29.50
42227;DHT22;27892;52.378;13.122;2023-05-31T06:17:47;32.00;28.70
42227;DHT22;27892;52.378;13.122;2023-05-31T06:20:15;33.10;28.00
42227;DHT22;27892;52.378;13.122;2023-05-31T06:22:42;34.30;26.80
42227;DHT22;27892;52.378;13.122;2023-05-31T06:25:08;35.30;25.60
42227;DHT22;27892;52.378;13.122;2023-05-31T06:27:34;36.00;24.60
42227;DHT22;27892;52.378;13.122;2023-05-31T06:30:00;36.60;24.10
42227;DHT22;27892;52.378;13.122;2023-05-31T06:32:30;37.30;23.50
42227;DHT22;27892;52.378;13.122;2023-05-31T06:34:55;37.80;22.70
42227;DHT22;27892;52.378;13.122;2023-05-31T06:37:22;38.40;22.10
42227;DHT22;27892;52.378;13.122;2023-05-31T06:39:49;39.10;21.60
42227;DHT22;27892;52.378;13.122;2023-05-31T06:42:14;39.50;21.00
42227;DHT22;27892;52.378;13.122;2023-05-31T06:44:41;39.80;20.50
42227;DHT22;27892;52.378;13.122;2023-05-31T06:47:07;40.10;20.70
42227;DHT22;27892;52.378;13.122;2023-05-31T06:49:33;40.30;20.40
42227;DHT22;27892;52.378;13.122;2023-05-31T06:51:59;40.40;19.80
42227;DHT22;27892;52.378;13.122;2023-05-31T06:54:26;40.20;20.40
42227;DHT22;27892;52.378;13.122;2023-05-31T06:56:52;40.50;20.30
42227;DHT22;27892;52.378;13.122;2023-05-31T06:59:18;41.00;20.00
42227;DHT22;27892;52.378;13.122;2023-05-31T07:01:43;41.30;19.60
42227;DHT22;27892;52.378;13.122;2023-05-31T07:04:09;41.70;19.40
42227;DHT22;27892;52.378;13.122;2023-05-31T07:06:35;42.00;19.10
42227;DHT22;27892;52.378;13.122;2023-05-31T07:09:06;41.90;18.90
42227;DHT22;27892;52.378;13.122;2023-05-31T07:11:32;42.00;18.70
42227;DHT22;27892;52.378;13.122;2023-05-31T07:13:57;41.80;18.80
42227;DHT22;27892;52.378;13.122;2023-05-31T07:16:27;41.90;18.70
42227;DHT22;27892;52.378;13.122;2023-05-31T07:18:53;41.50;18.40
42227;DHT22;27892;52.378;13.122;2023-05-31T07:21:19;41.30;19.40
42227;DHT22;27892;52.378;13.122;2023-05-31T07:23:45;41.20;19.20
42227;DHT22;27892;52.378;13.122;2023-05-31T07:26:11;41.00;19.10
42227;DHT22;27892;52.378;13.122;2023-05-31T07:28:36;40.40;19.30
42227;DHT22;27892;52.378;13.122;2023-05-31T07:31:02;39.40;19.70
42227;DHT22;27892;52.378;13.122;2023-05-31T07:33:29;38.20;20.20
42227;DHT22;27892;52.378;13.122;2023-05-31T07:35:57;37.60;20.40
42227;DHT22;27892;52.378;13.122;2023-05-31T07:38:23;37.40;20.60
42227;DHT22;27892;52.378;13.122;2023-05-31T07:40:49;37.10;21.10
42227;DHT22;27892;52.378;13.122;2023-05-31T07:43:14;36.40;21.50
42227;DHT22;27892;52.378;13.122;2023-05-31T07:45:40;35.50;22.00
42227;DHT22;27892;52.378;13.122;2023-05-31T07:48:06;34.80;22.20
42227;DHT22;27892;52.378;13.122;2023-05-31T07:50:32;34.10;22.70
42227;DHT22;27892;52.378;13.122;2023-05-31T07:52:58;33.70;23.10
42227;DHT22;27892;52.378;13.122;2023-05-31T07:55:24;33.40;23.70
42227;DHT22;27892;52.378;13.122;2023-05-31T07:57:50;33.10;23.70
42227;DHT22;27892;52.378;13.122;2023-05-31T08:00:16;32.80;23.80
42227;DHT22;27892;52.378;13.122;2023-05-31T08:02:42;32.50;24.40
42227;DHT22;27892;52.378;13.122;2023-05-31T08:05:08;32.20;24.30
42227;DHT22;27892;52.378;13.122;2023-05-31T08:07:34;32.10;24.80
42227;DHT22;27892;52.378;13.122;2023-05-31T08:10:00;31.90;24.80
42227;DHT22;27892;52.378;13.122;2023-05-31T08:12:26;31.80;25.00
42227;DHT22;27892;52.378;13.122;2023-05-31T08:14:52;31.90;25.00
42227;DHT22;27892;52.378;13.122;2023-05-31T08:17:18;31.90;24.10
42227;DHT22;27892;52.378;13.122;2023-05-31T08:19:43;31.80;24.70
42227;DHT22;27892;52.378;13.122;2023-05-31T08:22:09;31.80;24.80
42227;DHT22;27892;52.378;13.122;2023-05-31T08:24:35;31.70;24.60
42227;DHT22;27892;52.378;13.122;2023-05-31T08:27:01;31.50;24.20
42227;DHT22;27892;52.378;13.122;2023-05-31T08:29:27;31.20;25.20
42227;DHT22;27892;52.378;13.122;2023-05-31T08:31:53;31.10;25.30
42227;DHT22;27892;52.378;13.122;2023-05-31T08:34:19;31.00;24.20
42227;DHT22;27892;52.378;13.122;2023-05-31T08:36:45;31.00;24.10
42227;DHT22;27892;52.378;13.122;2023-05-31T08:39:10;31.10;23.80
42227;DHT22;27892;52.378;13.122;2023-05-31T08:42:03;31.00;23.40
42227;DHT22;27892;52.378;13.122;2023-05-31T08:44:29;31.00;23.60
42227;DHT22;27892;52.378;13.122;2023-05-31T08:47:14;31.00;24.10
42227;DHT22;27892;52.378;13.122;2023-05-31T08:49:44;31.00;24.60
42227;DHT22;27892;52.378;13.122;2023-05-31T08:52:10;30.80;24.50
42227;DHT22;27892;52.378;13.122;2023-05-31T08:54:37;30.70;25.10
42227;DHT22;27892;52.378;13.122;2023-05-31T08:57:03;30.60;24.60
42227;DHT22;27892;52.378;13.122;2023-05-31T08:59:30;30.40;25.10
42227;DHT22;27892;52.378;13.122;2023-05-31T09:01:56;30.20;24.90
42227;DHT22;27892;52.378;13.122;2023-05-31T09:04:23;30.10;25.30
42227;DHT22;27892;52.378;13.122;2023-05-31T09:06:50;30.20;25.20
42227;DHT22;27892;52.378;13.122;2023-05-31T09:09:17;30.40;25.00
42227;DHT22;27892;52.378;13.122;2023-05-31T09:11:44;30.50;24.70
42227;DHT22;27892;52.378;13.122;2023-05-31T09:14:10;30.70;25.20
42227;DHT22;27892;52.378;13.122;2023-05-31T09:16:36;30.90;24.90
42227;DHT22;27892;52.378;13.122;2023-05-31T09:19:03;31.00;24.70
42227;DHT22;27892;52.378;13.122;2023-05-31T09:21:41;31.30;24.60
42227;DHT22;27892;52.378;13.122;2023-05-31T09:24:07;31.50;24.10
42227;DHT22;27892;52.378;13.122;2023-05-31T09:26:33;31.50;24.20
42227;DHT22;27892;52.378;13.122;2023-05-31T09:29:00;31.50;24.30
42227;DHT22;27892;52.378;13.122;2023-05-31T09:31:26;31.40;23.90
42227;DHT22;27892;52.378;13.122;2023-05-31T09:33:53;31.30;24.40
42227;DHT22;27892;52.378;13.122;2023-05-31T09:36:29;31.30;24.60
42227;DHT22;27892;52.378;13.122;2023-05-31T09:39:03;31.30;24.60
42227;DHT22;27892;52.378;13.122;2023-05-31T09:41:31;31.50;24.50
42227;DHT22;27892;52.378;13.122;2023-05-31T09:43:57;31.70;24.30
42227;DHT22;27892;52.378;13.122;2023-05-31T09:46:24;31.80;24.00
42227;DHT22;27892;52.378;13.122;2023-05-31T09:48:59;31.80;24.10
42227;DHT22;27892;52.378;13.122;2023-05-31T09:51:25;31.80;23.70
42227;DHT22;27892;52.378;13.122;2023-05-31T09:53:51;31.70;24.20
42227;DHT22;27892;52.378;13.122;2023-05-31T09:56:21;31.80;23.90
42227;DHT22;27892;52.378;13.122;2023-05-31T09:58:51;31.90;24.30
42227;DHT22;27892;52.378;13.122;2023-05-31T10:01:20;32.10;23.90
42227;DHT22;27892;52.378;13.122;2023-05-31T10:03:48;32.30;23.90
42227;DHT22;27892;52.378;13.122;2023-05-31T10:06:16;32.40;24.00
42227;DHT22;27892;52.378;13.122;2023-05-31T10:08:43;32.40;24.10
42227;DHT22;27892;52.378;13.122;2023-05-31T10:11:09;32.50;23.50
42227;DHT22;27892;52.378;13.122;2023-05-31T10:13:41;32.40;23.20
42227;DHT22;27892;52.378;13.122;2023-05-31T10:16:08;32.20;23.20
42227;DHT22;27892;52.378;13.122;2023-05-31T10:18:38;32.20;23.20
42227;DHT22;27892;52.378;13.122;2023-05-31T10:23:53;32.20;23.20
42227;DHT22;27892;52.378;13.122;2023-05-31T10:26:22;32.20;23.20
42227;DHT22;27892;52.378;13.122;2023-05-31T10:31:23;32.30;23.00
42227;DHT22;27892;52.378;13.122;2023-05-31T10:33:54;32.20;22.90
42227;DHT22;27892;52.378;13.122;2023-05-31T10:36:27;32.20;23.10
42227;DHT22;27892;52.378;13.122;2023-05-31T10:39:00;32.40;22.90
42227;DHT22;27892;52.378;13.122;2023-05-31T10:41:36;32.50;22.60
42227;DHT22;27892;52.378;13.122;2023-05-31T10:44:10;32.60;22.10
42227;DHT22;27892;52.378;13.122;2023-05-31T10:46:38;32.60;22.10
42227;DHT22;27892;52.378;13.122;2023-05-31T10:49:09;32.70;22.40
42227;DHT22;27892;52.378;13.122;2023-05-31T10:51:42;32.90;23.10
42227;DHT22;27892;52.378;13.122;2023-05-31T10:54:18;33.00;22.20
42227;DHT22;27892;52.378;13.122;2023-05-31T10:56:54;33.00;22.00
42227;DHT22;27892;52.378;13.122;2023-05-31T10:59:20;32.90;22.20
42227;DHT22;27892;52.378;13.122;2023-05-31T11:01:47;32.80;22.30
42227;DHT22;27892;52.378;13.122;2023-05-31T11:04:24;32.70;21.80
42227;DHT22;27892;52.378;13.122;2023-05-31T11:07:22;32.60;22.70
42227;DHT22;27892;52.378;13.122;2023-05-31T11:09:55;32.50;23.30
42227;DHT22;27892;52.378;13.122;2023-05-31T11:12:36;32.60;22.70
42227;DHT22;27892;52.378;13.122;2023-05-31T11:15:03;32.60;22.70
42227;DHT22;27892;52.378;13.122;2023-05-31T11:17:39;32.80;22.80
42227;DHT22;27892;52.378;13.122;2023-05-31T11:20:14;32.90;23.10
42227;DHT22;27892;52.378;13.122;2023-05-31T11:22:40;32.90;22.70
42227;DHT22;27892;52.378;13.122;2023-05-31T11:25:07;33.00;22.80
42227;DHT22;27892;52.378;13.122;2023-05-31T11:27:38;32.90;22.50
42227;DHT22;27892;52.378;13.122;2023-05-31T11:30:14;32.80;22.40
42227;DHT22;27892;52.378;13.122;2023-05-31T11:35:07;32.80;22.60
42227;DHT22;27892;52.378;13.122;2023-05-31T11:37:37;32.80;22.90
42227;DHT22;27892;52.378;13.122;2023-05-31T11:40:05;32.90;23.10
42227;DHT22;27892;52.378;13.122;2023-05-31T11:42:39;32.90;22.50
42227;DHT22;27892;52.378;13.122;2023-05-31T11:45:09;32.80;22.70
42227;DHT22;27892;52.378;13.122;2023-05-31T11:50:14;32.70;22.40
42227;DHT22;27892;52.378;13.122;2023-05-31T11:52:43;32.70;22.30
42227;DHT22;27892;52.378;13.122;2023-05-31T11:55:10;32.70;22.30
42227;DHT22;27892;52.378;13.122;2023-05-31T11:57:44;32.70;22.20
42227;DHT22;27892;52.378;13.122;2023-05-31T12:00:11;32.80;22.40
42227;DHT22;27892;52.378;13.122;2023-05-31T12:02:42;32.80;22.60
42227;DHT22;27892;52.378;13.122;2023-05-31T12:05:11;33.00;22.50
42227;DHT22;27892;52.378;13.122;2023-05-31T12:07:37;33.10;21.40
42227;DHT22;27892;52.378;13.122;2023-05-31T12:10:07;33.00;21.80
42227;DHT22;27892;52.378;13.122;2023-05-31T12:12:34;33.10;22.00
42227;DHT22;27892;52.378;13.122;2023-05-31T12:15:00;33.00;21.40
42227;DHT22;27892;52.378;13.122;2023-05-31T12:17:33;32.70;21.70
42227;DHT22;27892;52.378;13.122;2023-05-31T12:19:59;32.80;22.20
42227;DHT22;27892;52.378;13.122;2023-05-31T12:22:25;32.90;22.10
42227;DHT22;27892;52.378;13.122;2023-05-31T12:24:54;33.10;22.20
42227;DHT22;27892;52.378;13.122;2023-05-31T12:27:25;33.30;22.10
42227;DHT22;27892;52.378;13.122;2023-05-31T12:30:01;33.50;22.00
42227;DHT22;27892;52.378;13.122;2023-05-31T12:32:27;33.40;22.10
42227;DHT22;27892;52.378;13.122;2023-05-31T12:35:14;33.40;22.00
42227;DHT22;27892;52.378;13.122;2023-05-31T12:37:40;33.40;22.00
42227;DHT22;27892;52.378;13.122;2023-05-31T12:40:16;33.50;21.90
42227;DHT22;27892;52.378;13.122;2023-05-31T12:42:44;33.60;22.00
42227;DHT22;27892;52.378;13.122;2023-05-31T12:45:10;33.80;21.20
42227;DHT22;27892;52.378;13.122;2023-05-31T12:47:36;33.80;20.70
42227;DHT22;27892;52.378;13.122;2023-05-31T12:50:07;33.80;20.70
42227;DHT22;27892;52.378;13.122;2023-05-31T12:52:34;33.70;20.70
42227;DHT22;27892;52.378;13.122;2023-05-31T12:55:01;33.60;20.50
42227;DHT22;27892;52.378;13.122;2023-05-31T12:57:30;33.60;20.30
42227;DHT22;27892;52.378;13.122;2023-05-31T13:00:04;33.50;20.70
42227;DHT22;27892;52.378;13.122;2023-05-31T13:02:35;33.70;20.40
42227;DHT22;27892;52.378;13.122;2023-05-31T13:05:01;33.70;20.10
42227;DHT22;27892;52.378;13.122;2023-05-31T13:07:26;33.70;20.20
42227;DHT22;27892;52.378;13.122;2023-05-31T13:09:52;33.60;20.60
42227;DHT22;27892;52.378;13.122;2023-05-31T13:12:19;33.70;20.60
42227;DHT22;27892;52.378;13.122;2023-05-31T13:14:46;33.70;20.60
42227;DHT22;27892;52.378;13.122;2023-05-31T13:17:12;33.70;20.60
42227;DHT22;27892;52.378;13.122;2023-05-31T13:19:38;33.90;20.50
42227;DHT22;27892;52.378;13.122;2023-05-31T13:22:04;33.90;20.10
42227;DHT22;27892;52.378;13.122;2023-05-31T13:24:30;33.70;19.90
42227;DHT22;27892;52.378;13.122;2023-05-31T13:26:56;33.50;20.20
42227;DHT22;27892;52.378;13.122;2023-05-31T13:29:21;33.50;20.40
42227;DHT22;27892;52.378;13.122;2023-05-31T13:31:51;33.50;20.30
42227;DHT22;27892;52.378;13.122;2023-05-31T13:34:18;33.50;20.70
42227;DHT22;27892;52.378;13.122;2023-05-31T13:36:44;33.50;20.30
42227;DHT22;27892;52.378;13.122;2023-05-31T13:39:09;33.50;20.30
42227;DHT22;27892;52.378;13.122;2023-05-31T13:41:42;33.40;20.40
42227;DHT22;27892;52.378;13.122;2023-05-31T13:44:09;33.30;20.50
42227;DHT22;27892;52.378;13.122;2023-05-31T13:46:36;33.00;20.30
42227;DHT22;27892;52.378;13.122;2023-05-31T13:49:02;33.00;20.70
42227;DHT22;27892;52.378;13.122;2023-05-31T13:51:28;32.90;20.80
42227;DHT22;27892;52.378;13.122;2023-05-31T13:53:54;33.00;20.90
42227;DHT22;27892;52.378;13.122;2023-05-31T13:56:19;33.20;21.10
42227;DHT22;27892;52.378;13.122;2023-05-31T13:58:45;33.40;20.50
42227;DHT22;27892;52.378;13.122;2023-05-31T14:01:11;33.50;21.10
42227;DHT22;27892;52.378;13.122;2023-05-31T14:03:37;33.70;20.40
42227;DHT22;27892;52.378;13.122;2023-05-31T14:06:03;33.70;20.00
42227;DHT22;27892;52.378;13.122;2023-05-31T14:08:29;33.50;19.50
42227;DHT22;27892;52.378;13.122;2023-05-31T14:10:56;33.30;19.90
42227;DHT22;27892;52.378;13.122;2023-05-31T14:13:21;33.00;20.00
42227;DHT22;27892;52.378;13.122;2023-05-31T14:15:47;32.80;20.30
42227;DHT22;27892;52.378;13.122;2023-05-31T14:18:13;32.60;20.20
42227;DHT22;27892;52.378;13.122;2023-05-31T14:20:40;32.40;20.50
42227;DHT22;27892;52.378;13.122;2023-05-31T14:23:06;32.40;20.90
42227;DHT22;27892;52.378;13.122;2023-05-31T14:25:32;32.40;20.60
42227;DHT22;27892;52.378;13.122;2023-05-31T14:27:58;32.30;20.50
42227;DHT22;27892;52.378;13.122;2023-05-31T14:30:25;32.30;20.80
42227;DHT22;27892;52.378;13.122;2023-05-31T14:32:52;32.40;20.60
42227;DHT22;27892;52.378;13.122;2023-05-31T14:35:18;32.40;20.30
42227;DHT22;27892;52.378;13.122;2023-05-31T14:37:44;32.40;20.50
42227;DHT22;27892;52.378;13.122;2023-05-31T14:40:10;32.20;20.80
42227;DHT22;27892;52.378;13.122;2023-05-31T14:42:36;32.20;20.50
42227;DHT22;27892;52.378;13.122;2023-05-31T14:45:01;32.00;20.80
42227;DHT22;27892;52.378;13.122;2023-05-31T14:47:30;31.80;20.70
42227;DHT22;27892;52.378;13.122;2023-05-31T14:49:56;31.60;20.30
42227;DHT22;27892;52.378;13.122;2023-05-31T14:52:22;31.40;20.60
42227;DHT22;27892;52.378;13.122;2023-05-31T14:54:48;31.30;20.60
42227;DHT22;27892;52.378;13.122;2023-05-31T14:57:13;31.20;20.50
42227;DHT22;27892;52.378;13.122;2023-05-31T14:59:39;31.00;20.60
42227;DHT22;27892;52.378;13.122;2023-05-31T15:02:05;31.00;21.10
42227;DHT22;27892;52.378;13.122;2023-05-31T15:04:32;31.00;20.60
42227;DHT22;27892;52.378;13.122;2023-05-31T15:06:59;30.80;19.80
42227;DHT22;27892;52.378;13.122;2023-05-31T15:09:24;30.70;19.80
42227;DHT22;27892;52.378;13.122;2023-05-31T15:11:50;30.60;19.80
42227;DHT22;27892;52.378;13.122;2023-05-31T15:14:16;30.50;19.60
42227;DHT22;27892;52.378;13.122;2023-05-31T15:16:42;30.40;20.10
42227;DHT22;27892;52.378;13.122;2023-05-31T15:19:08;30.40;20.50
42227;DHT22;27892;52.378;13.122;2023-05-31T15:21:33;30.40;21.30
42227;DHT22;27892;52.378;13.122;2023-05-31T15:24:01;30.40;21.00
42227;DHT22;27892;52.378;13.122;2023-05-31T15:26:26;30.30;21.30
42227;DHT22;27892;52.378;13.122;2023-05-31T15:28:52;30.20;21.20
42227;DHT22;27892;52.378;13.122;2023-05-31T15:31:19;30.20;21.80